Time;durP1;ratioP1;P1;durP2;ratioP2;P2;SDS_P1;SDS_P2;PMS_P1;PMS_P2;Temp;Humidity;BMP_temperature;BMP_pressure;BME280_temperature;BME280_humidity;BME280_pressure;Samples;Min_cycle;Max_cycle;Signal;HPM_P1;HPM_P2
2022/04/01 00:02:11;;;;;;;27.10;24.02;;;;;;;0.72;100.00;99024.94;5047250;28;20925;-56
2022/04/01 00:04:39;;;;;;;29.30;24.05;;;;;;;0.69;100.00;99022.47;5046721;28;20028;-57
2022/04/01 00:07:04;;;;;;;31.77;25.83;;;;;;;0.74;100.00;99037.81;5046369;28;20936;-57
2022/04/01 00:09:29;;;;;;;28.35;25.27;;;;;;;0.69;100.00;99016.44;5046464;28;20028;-56
2022/04/01 00:11:55;;;;;;;38.42;28.23;;;;;;;0.79;100.00;99044.53;5046560;28;20060;-56
2022/04/01 00:14:20;;;;;;;37.90;30.08;;;;;;;0.73;100.00;99039.56;5046752;28;20774;-56
2022/04/01 00:16:46;;;;;;;35.60;28.77;;;;;;;0.78;100.00;99045.41;5047279;28;20055;-57
2022/04/01 00:19:12;;;;;;;39.78;31.30;;;;;;;0.60;100.00;99020.19;5046567;28;20032;-56
2022/04/01 00:21:38;;;;;;;39.20;31.15;;;;;;;0.68;100.00;99025.94;5046583;28;20078;-57
2022/04/01 00:24:04;;;;;;;43.30;33.80;;;;;;;0.77;100.00;99036.00;5046664;28;20866;-57
2022/04/01 00:26:29;;;;;;;42.85;34.53;;;;;;;0.81;100.00;99044.50;5047010;28;20522;-57
2022/04/01 00:28:55;;;;;;;43.97;37.55;;;;;;;0.80;100.00;99045.38;5045328;28;20031;-57
2022/04/01 00:31:20;;;;;;;45.60;37.28;;;;;;;0.76;100.00;99044.63;5045410;28;20930;-56
2022/04/01 00:33:46;;;;;;;49.42;39.75;;;;;;;0.67;100.00;99044.94;5047418;28;20218;-57
2022/04/01 00:36:11;;;;;;;49.85;40.08;;;;;;;0.59;100.00;99041.75;5027419;28;20135;-57
2022/04/01 00:38:36;;;;;;;54.53;42.33;;;;;;;0.51;100.00;99039.41;5046490;28;20850;-58
2022/04/01 00:41:02;;;;;;;50.28;41.80;;;;;;;0.47;100.00;99053.28;5027696;28;20028;-58
2022/04/01 00:43:30;;;;;;;51.10;42.58;;;;;;;0.44;100.00;99053.41;5045918;28;20028;-57
2022/04/01 00:45:55;;;;;;;50.47;41.72;;;;;;;0.41;100.00;99057.81;5045498;28;20230;-57
2022/04/01 00:48:20;;;;;;;52.70;42.90;;;;;;;0.36;100.00;99063.13;5045170;28;20621;-57
2022/04/01 00:50:47;;;;;;;51.47;42.88;;;;;;;0.18;100.00;99040.44;5045197;28;20020;-58
2022/04/01 00:53:12;;;;;;;54.45;43.72;;;;;;;0.33;100.00;99067.56;5027172;28;20078;-56
2022/04/01 00:55:38;;;;;;;57.65;45.08;;;;;;;0.33;100.00;99046.88;5045066;28;20828;-55
2022/04/01 00:58:05;;;;;;;49.95;43.55;;;;;;;0.50;100.00;99067.88;5044952;28;20038;-56
2022/04/01 01:00:31;;;;;;;52.30;44.05;;;;;;;0.40;100.00;99040.63;5031173;28;20043;-57
2022/04/01 01:02:57;;;;;;;51.40;43.03;;;;;;;0.58;100.00;99065.88;5049063;28;20027;-56
2022/04/01 01:05:23;;;;;;;49.58;42.50;;;;;;;0.61;100.00;99075.31;5048984;28;20024;-55
2022/04/01 01:07:48;;;;;;;52.97;42.78;;;;;;;0.42;100.00;99042.28;5048937;28;20066;-56
2022/04/01 01:10:16;;;;;;;53.53;44.00;;;;;;;0.65;100.00;99072.56;5048914;28;20739;-56
2022/04/01 01:12:43;;;;;;;53.95;44.05;;;;;;;0.67;100.00;99078.53;5049280;28;20027;-55
2022/04/01 01:15:13;;;;;;;58.10;46.88;;;;;;;0.53;100.00;99057.44;5048407;28;20032;-55
2022/04/01 01:17:39;;;;;;;51.20;42.17;;;;;;;0.58;100.00;99068.47;5048465;28;20035;-56
2022/04/01 01:20:13;;;;;;;54.60;43.88;;;;;;;0.52;100.00;99055.75;5048881;28;20043;-56
2022/04/01 01:22:42;;;;;;;51.55;41.60;;;;;;;0.62;100.00;99076.97;5050613;28;20086;-56
2022/04/01 01:25:08;;;;;;;48.03;41.00;;;;;;;0.61;100.00;99081.28;5049938;28;20032;-56
2022/04/01 01:27:34;;;;;;;51.03;41.53;;;;;;;0.46;100.00;99055.94;5032738;28;20977;-55
2022/04/01 01:30:02;;;;;;;49.53;40.83;;;;;;;0.58;100.00;99081.38;5049574;28;20024;-56
2022/04/01 01:32:29;;;;;;;42.88;37.35;;;;;;;0.37;100.00;99048.50;5049790;28;20031;-57
2022/04/01 01:34:55;;;;;;;41.03;36.53;;;;;;;0.50;100.00;99081.66;5049587;28;20043;-57
2022/04/01 01:37:20;;;;;;;45.97;37.55;;;;;;;0.44;100.00;99073.25;5049241;28;20023;-56
2022/04/01 01:39:46;;;;;;;41.65;34.88;;;;;;;0.37;100.00;99066.56;5048378;28;20944;-54
2022/04/01 01:42:11;;;;;;;44.08;36.00;;;;;;;0.40;100.00;99072.50;5051409;28;20181;-56
2022/04/01 01:44:36;;;;;;;48.03;37.05;;;;;;;0.38;100.00;99073.41;5050409;28;20074;-56
2022/04/01 01:47:03;;;;;;;40.88;34.17;;;;;;;0.41;100.00;99086.22;5050556;28;20024;-55
2022/04/01 01:49:28;;;;;;;44.33;36.50;;;;;;;0.41;100.00;99083.63;5049823;28;20066;-55
2022/04/01 01:54:49;;;;;;;42.60;34.85;;;;;;;0.39;100.00;99088.03;5053837;28;21048;-56
2022/04/01 01:57:22;;;;;;;43.97;34.40;;;;;;;0.40;100.00;99092.31;5054582;28;20040;-57
2022/04/01 01:59:48;;;;;;;42.42;34.38;;;;;;;0.39;100.00;99093.19;5053792;28;20032;-56
2022/04/01 02:02:14;;;;;;;39.88;34.40;;;;;;;0.28;100.00;99084.91;5034141;28;20062;-56
2022/04/01 02:04:40;;;;;;;42.90;33.75;;;;;;;0.29;100.00;99099.53;5035364;28;20257;-58
2022/04/01 02:07:07;;;;;;;41.40;34.50;;;;;;;0.26;100.00;99099.63;5034327;28;20967;-55
2022/04/01 02:09:32;;;;;;;39.25;34.25;;;;;;;0.25;100.00;99103.09;5048007;28;20024;-58
2022/04/01 02:11:58;;;;;;;38.70;33.92;;;;;;;0.11;100.00;99085.41;5045490;28;20870;-57
2022/04/01 02:14:24;;;;;;;37.30;32.47;;;;;;;0.20;100.00;99099.81;5045875;28;20047;-58
2022/04/01 02:16:49;;;;;;;36.33;31.15;;;;;;;0.18;100.00;99102.41;5047091;28;20135;-56
2022/04/01 02:19:21;;;;;;;37.78;30.75;;;;;;;0.17;100.00;99112.81;5048247;28;20035;-58
2022/04/01 02:21:48;;;;;;;37.35;31.52;;;;;;;0.15;100.00;99112.00;5048364;28;20027;-57
2022/04/01 02:24:14;;;;;;;36.33;29.15;;;;;;;0.13;100.00;99117.22;5030332;28;20873;-58
2022/04/01 02:26:39;;;;;;;36.97;30.23;;;;;;;0.09;100.00;99115.59;5049519;28;20062;-57
2022/04/01 02:29:05;;;;;;;33.00;29.42;;;;;;;-0.37;100.00;99041.19;5029733;28;20131;-58
2022/04/01 02:31:33;;;;;;;36.83;29.95;;;;;;;0.03;100.00;99112.34;5047309;28;20031;-58
2022/04/01 02:33:59;;;;;;;35.50;29.90;;;;;;;0.02;100.00;99118.41;5047615;28;20971;-58
2022/04/01 02:36:24;;;;;;;36.60;30.70;;;;;;;-0.02;100.00;99108.16;5048131;28;20044;-58
2022/04/01 02:38:50;;;;;;;33.03;28.55;;;;;;;-0.18;100.00;99088.00;5047580;28;20134;-57
2022/04/01 02:41:16;;;;;;;32.67;28.25;;;;;;;-0.02;100.00;99121.06;5048302;28;20824;-58
2022/04/01 02:43:41;;;;;;;35.38;29.23;;;;;;;-0.22;100.00;99094.97;5047516;28;20030;-58
2022/04/01 02:46:10;;;;;;;36.80;30.70;;;;;;;-0.22;100.00;99097.56;5047806;28;21003;-58
2022/04/01 02:48:36;;;;;;;37.47;30.80;;;;;;;-0.04;100.00;99133.19;5047420;28;20054;-58
2022/04/01 02:51:01;;;;;;;33.67;29.33;;;;;;;-0.08;100.00;99121.25;5047117;28;20016;-57
2022/04/01 02:53:26;;;;;;;37.95;31.45;;;;;;;-0.12;100.00;99127.38;5049340;28;20031;-57
2022/04/01 02:55:52;;;;;;;35.95;29.88;;;;;;;-0.11;100.00;99130.81;5047459;28;20964;-58
2022/04/01 02:58:17;;;;;;;39.00;33.42;;;;;;;-0.08;100.00;99135.88;5048989;28;20883;-57
2022/04/01 03:00:42;;;;;;;36.80;30.90;;;;;;;-0.11;100.00;99136.81;5047089;28;20028;-58
2022/04/01 03:03:09;;;;;;;37.05;32.15;;;;;;;-0.13;100.00;99138.56;5048182;28;20255;-58
2022/04/01 03:05:39;;;;;;;36.80;32.80;;;;;;;-0.12;100.00;99134.28;5047632;28;20032;-57
2022/04/01 03:08:06;;;;;;;36.83;32.10;;;;;;;-0.11;100.00;99139.41;5047444;28;20032;-58
2022/04/01 03:10:36;;;;;;;36.83;31.17;;;;;;;-0.09;100.00;99140.19;5047719;28;20024;-57
2022/04/01 03:13:01;;;;;;;39.35;33.08;;;;;;;-0.14;100.00;99142.06;5047544;28;20050;-57
2022/04/01 03:15:28;;;;;;;39.90;34.63;;;;;;;-0.24;100.00;99119.97;5047758;28;20127;-56
2022/04/01 03:17:55;;;;;;;40.88;33.75;;;;;;;-0.12;100.00;99134.28;5047782;28;20828;-57
2022/04/01 03:20:20;;;;;;;43.58;33.50;;;;;;;-0.10;100.00;99143.66;5046903;28;20052;-57
2022/04/01 03:22:46;;;;;;;38.08;33.83;;;;;;;-0.09;100.00;99150.53;5046797;28;20020;-58
2022/04/01 03:25:15;;;;;;;42.10;35.30;;;;;;;-0.09;100.00;99155.69;5046543;28;20020;-57
2022/04/01 03:27:40;;;;;;;41.70;36.33;;;;;;;-0.08;100.00;99162.53;5047886;28;20036;-58
2022/04/01 03:30:10;;;;;;;43.45;36.35;;;;;;;-0.10;100.00;99153.13;5047661;28;20097;-56
2022/04/01 03:32:39;;;;;;;42.22;37.15;;;;;;;-0.12;100.00;99150.59;5046855;28;20063;-57
2022/04/01 03:35:07;;;;;;;44.67;37.03;;;;;;;-0.30;100.00;99124.44;5029045;28;20036;-56
2022/04/01 03:37:33;;;;;;;43.25;36.97;;;;;;;-0.10;100.00;99161.72;5046679;28;20030;-58
2022/04/01 03:39:58;;;;;;;46.22;39.10;;;;;;;-0.21;100.00;99150.00;5046503;28;20024;-57
2022/04/01 03:42:27;;;;;;;47.00;37.92;;;;;;;-0.39;100.00;99117.81;5047337;28;20890;-57
2022/04/01 03:44:53;;;;;;;46.13;38.50;;;;;;;-0.19;100.00;99155.97;5046768;28;20090;-57
2022/04/01 03:47:24;;;;;;;45.95;38.35;;;;;;;-0.13;100.00;99161.81;5046467;28;20028;-57
2022/04/01 03:49:56;;;;;;;49.47;37.40;;;;;;;-0.21;100.00;99158.59;5047314;28;20070;-58
2022/04/01 03:52:24;;;;;;;47.90;38.17;;;;;;;-0.15;100.00;99170.50;5046628;28;20043;-58
2022/04/01 03:54:55;;;;;;;45.10;36.03;;;;;;;-0.15;100.00;99171.34;5045935;28;20055;-58
2022/04/01 03:57:26;;;;;;;48.15;37.63;;;;;;;-0.09;100.00;99175.47;5046127;28;20028;-56
2022/04/01 03:59:54;;;;;;;42.35;35.22;;;;;;;-0.09;100.00;99201.28;5027950;28;20055;-58
2022/04/01 04:02:20;;;;;;;47.53;36.30;;;;;;;-0.07;100.00;99194.38;5046413;28;20131;-58
2022/04/01 04:04:46;;;;;;;41.72;33.70;;;;;;;-0.12;100.00;99171.25;5046683;28;20020;-57
2022/04/01 04:07:12;;;;;;;46.63;36.10;;;;;;;-0.04;100.00;99189.13;5045547;28;20031;-57
2022/04/01 04:09:40;;;;;;;38.33;33.22;;;;;;;-0.03;100.00;99193.38;5046013;28;20028;-57
2022/04/01 04:12:07;;;;;;;39.88;31.98;;;;;;;-0.10;100.00;99189.25;5027922;28;20028;-56
2022/04/01 04:14:33;;;;;;;44.30;35.20;;;;;;;-0.03;100.00;99195.97;5045965;28;20141;-56
2022/04/01 04:17:06;;;;;;;36.88;31.17;;;;;;;-0.03;100.00;99199.38;5045875;28;20032;-56
2022/04/01 04:19:50;;;;;;;38.70;32.17;;;;;;;-0.03;100.00;99209.72;5046191;28;20090;-56
2022/04/01 04:22:30;;;;;;;38.55;30.90;;;;;;;-0.04;100.00;99200.31;5045423;28;21137;-55
2022/04/01 04:25:10;;;;;;;41.88;32.13;;;;;;;0.00;100.00;99203.66;5045093;28;20080;-56
2022/04/01 04:27:36;;;;;;;36.40;30.08;;;;;;;0.00;100.00;99216.56;5045212;28;20035;-56
2022/04/01 04:30:06;;;;;;;38.28;30.05;;;;;;;0.02;100.00;99219.09;5045254;28;20090;-54
2022/04/01 04:32:39;;;;;;;34.53;28.40;;;;;;;0.04;100.00;99222.47;5046289;28;20079;-57
2022/04/01 04:35:09;;;;;;;37.08;28.65;;;;;;;0.03;100.00;99226.81;5046380;28;20082;-56
2022/04/01 04:37:36;;;;;;;32.03;27.05;;;;;;;-0.02;100.00;99214.00;5046118;28;20206;-55
2022/04/01 04:40:03;;;;;;;38.13;29.00;;;;;;;0.01;100.00;99233.72;5045305;28;20024;-56
2022/04/01 04:42:31;;;;;;;37.30;28.27;;;;;;;0.06;100.00;99237.03;5045884;28;20186;-57
2022/04/01 04:44:57;;;;;;;35.03;28.02;;;;;;;0.04;100.00;99236.22;5045535;28;20032;-56
2022/04/01 04:47:29;;;;;;;33.38;28.20;;;;;;;0.10;100.00;99242.97;5028566;28;20035;-56
2022/04/01 04:49:57;;;;;;;31.35;26.50;;;;;;;0.10;100.00;99248.13;5046246;28;20190;-56
2022/04/01 04:52:34;;;;;;;34.63;25.90;;;;;;;0.09;100.00;99251.59;5046385;28;20039;-57
2022/04/01 04:55:03;;;;;;;35.50;26.48;;;;;;;0.10;100.00;99248.13;5047631;28;20843;-56
2022/04/01 04:57:29;;;;;;;32.08;24.63;;;;;;;-0.43;100.00;99172.94;5045566;28;20043;-57
2022/04/01 04:59:57;;;;;;;29.80;25.67;;;;;;;0.03;100.00;99244.03;5069196;28;20032;-56
2022/04/01 05:02:27;;;;;;;29.95;25.17;;;;;;;0.11;100.00;99261.00;5092807;28;20039;-56
2022/04/01 05:05:08;;;;;;;29.02;24.17;;;;;;;0.14;100.00;99280.72;5055364;28;20067;-57
2022/04/01 05:07:57;;;;;;;28.08;23.95;;;;;;;0.14;100.00;99275.53;5046782;28;20891;-58
2022/04/01 05:10:27;;;;;;;32.33;24.15;;;;;;;0.13;100.00;99282.47;5046523;28;20040;-56
2022/04/01 05:13:11;;;;;;;24.45;21.63;;;;;;;0.15;100.00;99287.59;5008405;28;20493;-57
2022/04/01 05:15:40;;;;;;;30.60;23.45;;;;;;;0.14;100.00;99291.03;5027086;28;20052;-57
2022/04/01 05:18:12;;;;;;;29.42;23.73;;;;;;;0.14;100.00;99291.03;5041529;28;20036;-56
2022/04/01 05:20:39;;;;;;;30.73;24.52;;;;;;;0.11;100.00;99298.88;5075751;28;20470;-55
2022/04/01 05:23:13;;;;;;;28.80;22.88;;;;;;;0.05;100.00;99304.19;5091394;28;20138;-55
2022/04/01 05:25:58;;;;;;;27.40;22.38;;;;;;;0.06;100.00;99303.31;5091379;28;20456;-56
2022/04/01 05:28:25;;;;;;;26.75;22.70;;;;;;;0.05;100.00;99317.09;5043263;28;20972;-56
2022/04/01 05:31:06;;;;;;;24.02;21.35;;;;;;;-0.05;100.00;99314.75;5028792;28;20818;-56
2022/04/01 05:33:53;;;;;;;27.52;21.15;;;;;;;-0.02;100.00;99326.75;5044037;28;20031;-57
2022/04/01 05:36:19;;;;;;;25.65;22.13;;;;;;;-0.06;100.00;99330.28;5028282;28;20043;-57
2022/04/01 05:38:47;;;;;;;26.77;20.15;;;;;;;-0.11;100.00;99333.00;5028464;28;20131;-58
2022/04/01 05:41:17;;;;;;;23.33;20.30;;;;;;;-0.16;100.00;99324.50;5056947;28;20032;-56
2022/04/01 05:43:46;;;;;;;24.17;19.77;;;;;;;-0.17;100.00;99332.28;5092307;28;20028;-57
2022/04/01 05:46:11;;;;;;;25.83;20.05;;;;;;;-0.36;100.00;99303.47;5094839;28;20024;-57
2022/04/01 05:48:38;;;;;;;23.48;19.13;;;;;;;-0.30;100.00;99315.38;5095757;28;20032;-57
2022/04/01 05:51:04;;;;;;;22.73;19.13;;;;;;;-0.22;100.00;99345.28;5053835;28;20036;-58
2022/04/01 05:53:32;;;;;;;25.30;18.77;;;;;;;-0.19;100.00;99355.53;5031090;28;20024;-58
2022/04/01 05:55:59;;;;;;;22.60;19.20;;;;;;;-0.21;100.00;99351.31;5049411;28;20032;-57
2022/04/01 05:58:26;;;;;;;25.95;18.95;;;;;;;-0.22;100.00;99354.78;5050021;28;20051;-57
2022/04/01 06:01:13;;;;;;;24.55;19.05;;;;;;;-0.18;100.00;99365.00;5032158;28;20020;-57
2022/04/01 06:03:52;;;;;;;23.42;20.25;;;;;;;-0.23;100.00;99369.41;5049588;28;20140;-58
2022/04/01 06:06:30;;;;;;;27.70;20.88;;;;;;;-0.17;100.00;99374.41;5049543;28;20090;-58
2022/04/01 06:09:33;;;;;;;24.75;21.15;;;;;;;-0.17;100.00;99369.25;5033677;28;20035;-58
2022/04/01 06:12:02;;;;;;;26.95;20.88;;;;;;;-0.20;100.00;99379.66;5053899;28;20171;-58
2022/04/01 06:14:45;;;;;;;27.55;20.13;;;;;;;-0.20;100.00;99384.81;5032086;28;20030;-58
2022/04/01 06:17:16;;;;;;;25.00;18.63;;;;;;;-0.21;100.00;99393.47;5033087;28;20031;-58
2022/04/01 06:19:44;;;;;;;24.70;19.60;;;;;;;-0.21;100.00;99403.78;5051561;28;20040;-58
2022/04/01 06:22:20;;;;;;;22.45;18.67;;;;;;;-0.37;100.00;99363.69;5049076;28;20443;-58
2022/04/01 06:24:57;;;;;;;22.08;18.00;;;;;;;-0.31;100.00;99385.97;5049858;28;20172;-58
2022/04/01 06:27:29;;;;;;;20.42;17.33;;;;;;;-0.19;100.00;99401.16;5050433;28;20032;-58
2022/04/01 06:30:08;;;;;;;22.92;18.27;;;;;;;-0.23;100.00;99400.38;5031254;28;20028;-57
2022/04/01 06:32:45;;;;;;;22.83;17.73;;;;;;;-0.14;100.00;99420.81;5049954;28;20024;-58
2022/04/01 06:35:19;;;;;;;21.08;16.70;;;;;;;-0.11;100.00;99425.06;5032151;28;20086;-58
2022/04/01 06:38:05;;;;;;;22.40;16.77;;;;;;;-0.15;100.00;99413.09;5049770;28;20032;-58
2022/04/01 06:40:56;;;;;;;20.58;16.80;;;;;;;-0.10;100.00;99431.91;5050123;28;20147;-58
2022/04/01 06:43:22;;;;;;;19.13;15.82;;;;;;;-0.11;100.00;99428.50;5050474;28;20055;-58
2022/04/01 06:45:48;;;;;;;17.17;15.38;;;;;;;-0.10;100.00;99437.06;5047660;28;20076;-57
2022/04/01 06:48:13;;;;;;;24.33;16.35;;;;;;;-0.13;100.00;99440.56;5047824;28;20852;-58
2022/04/01 06:50:39;;;;;;;20.02;14.18;;;;;;;-0.13;100.00;99447.47;5033976;28;20086;-57
2022/04/01 06:53:05;;;;;;;20.52;14.18;;;;;;;-0.77;100.00;99348.28;5027950;28;20188;-57
2022/04/01 06:55:30;;;;;;;14.10;12.27;;;;;;;-0.11;100.00;99463.78;5028584;28;20078;-57
2022/04/01 06:57:56;;;;;;;17.30;11.38;;;;;;;-0.09;100.00;99465.44;5027714;28;20813;-56
2022/04/01 07:00:21;;;;;;;14.85;11.82;;;;;;;-0.12;100.00;99465.50;5027285;28;20039;-56
2022/04/01 07:02:48;;;;;;;17.38;13.52;;;;;;;-0.41;100.00;99415.44;5026281;28;20062;-55
2022/04/01 07:05:14;;;;;;;12.68;10.57;;;;;;;-0.12;100.00;99465.50;5026039;28;20028;-57
2022/04/01 07:07:43;;;;;;;14.68;12.48;;;;;;;-0.11;100.00;99462.06;5026687;28;20033;-56
2022/04/01 07:10:10;;;;;;;15.45;10.57;;;;;;;-0.08;100.00;99477.47;5026717;28;20047;-56
2022/04/01 07:12:37;;;;;;;13.13;10.43;;;;;;;-0.03;100.00;99485.94;5026916;28;20095;-57
2022/04/01 07:15:03;;;;;;;13.90;9.55;;;;;;;0.00;100.00;99485.88;5025894;28;20040;-56
2022/04/01 07:17:28;;;;;;;13.10;9.95;;;;;;;0.02;100.00;99487.59;5041137;28;20023;-56
2022/04/01 07:19:53;;;;;;;10.23;9.10;;;;;;;0.03;100.00;99491.88;5046953;28;20031;-56
2022/04/01 07:22:19;;;;;;;12.32;10.45;;;;;;;0.03;100.00;99494.47;5047855;28;20931;-56
2022/04/01 07:24:44;;;;;;;14.23;9.70;;;;;;;-0.14;100.00;99461.28;5045408;28;20841;-55
2022/04/01 07:27:11;;;;;;;11.27;9.70;;;;;;;0.06;100.00;99495.25;5047869;28;20024;-56
2022/04/01 07:29:37;;;;;;;11.15;9.52;;;;;;;0.07;100.00;99504.66;5047908;28;20135;-55
2022/04/01 07:34:49;;;;;;;11.80;9.40;;;;;;;0.08;100.00;99514.13;5048688;28;20090;-56
2022/04/01 07:37:14;;;;;;;13.73;9.23;;;;;;;0.07;100.00;99509.81;5045853;28;20873;-54
2022/04/01 07:39:40;;;;;;;13.57;9.68;;;;;;;0.07;100.00;99521.91;5045903;28;20832;-56
2022/04/01 07:42:06;;;;;;;14.63;9.45;;;;;;;0.07;100.00;99522.75;5046606;28;20067;-56
2022/04/01 07:44:31;;;;;;;14.15;9.40;;;;;;;0.05;100.00;99524.50;5046050;28;20059;-56
2022/04/01 07:46:57;;;;;;;13.75;9.13;;;;;;;0.04;100.00;99527.97;5046513;28;20032;-56
2022/04/01 07:49:23;;;;;;;11.70;8.82;;;;;;;0.06;100.00;99531.38;5045409;28;20078;-56
2022/04/01 07:51:49;;;;;;;11.13;8.63;;;;;;;0.05;100.00;99536.56;5045189;28;20027;-57
2022/04/01 07:54:14;;;;;;;11.25;8.77;;;;;;;-0.09;100.00;99511.06;5046325;28;21008;-56
2022/04/01 07:56:40;;;;;;;9.75;7.55;;;;;;;-0.28;100.00;99479.63;5046517;28;20822;-57
2022/04/01 07:59:10;;;;;;;10.95;7.38;;;;;;;0.12;100.00;99551.06;5046337;28;20035;-56
2022/04/01 08:01:36;;;;;;;10.05;7.10;;;;;;;0.14;100.00;99564.78;5046278;28;20055;-56
2022/04/01 08:04:01;;;;;;;10.30;7.72;;;;;;;0.15;100.00;99566.47;5027835;28;20090;-56
2022/04/01 08:06:27;;;;;;;13.10;7.28;;;;;;;0.04;100.00;99548.63;5046403;28;20028;-56
2022/04/01 08:08:55;;;;;;;13.35;7.38;;;;;;;0.17;100.00;99572.47;5045904;28;20036;-55
2022/04/01 08:11:22;;;;;;;10.70;8.32;;;;;;;0.07;100.00;99565.81;5046398;28;20032;-56
2022/04/01 08:13:47;;;;;;;9.70;6.93;;;;;;;0.14;100.00;99583.69;5046112;28;20146;-56
2022/04/01 08:16:13;;;;;;;10.05;7.22;;;;;;;0.16;100.00;99588.84;5047806;28;20808;-57
2022/04/01 08:18:39;;;;;;;11.25;7.22;;;;;;;0.20;100.00;99586.19;5046643;28;20143;-55
2022/04/01 08:21:04;;;;;;;10.63;6.85;;;;;;;0.16;100.00;99578.50;5045405;28;20098;-56
2022/04/01 08:23:34;;;;;;;8.13;6.40;;;;;;;0.27;100.00;99594.63;5044853;28;20020;-57
2022/04/01 08:26:01;;;;;;;9.18;6.43;;;;;;;0.30;100.00;99589.41;5046507;28;20063;-57
2022/04/01 08:28:26;;;;;;;8.20;6.55;;;;;;;0.24;100.00;99563.69;5046538;28;20024;-57
2022/04/01 08:30:51;;;;;;;8.48;6.55;;;;;;;0.24;100.00;99586.94;5046846;28;20024;-57
2022/04/01 08:33:20;;;;;;;7.63;6.25;;;;;;;0.31;100.00;99598.84;5046688;28;20937;-55
2022/04/01 08:35:46;;;;;;;12.40;7.60;;;;;;;0.33;100.00;99607.41;5046710;28;20139;-56
2022/04/01 08:38:11;;;;;;;8.77;6.95;;;;;;;0.36;100.00;99603.03;5045069;28;20931;-56
2022/04/01 08:40:36;;;;;;;10.55;7.40;;;;;;;0.27;100.00;99595.47;5045009;28;20035;-57
2022/04/01 08:43:02;;;;;;;7.95;6.72;;;;;;;0.39;100.00;99609.88;5046360;28;20805;-56
2022/04/01 08:45:31;;;;;;;10.30;8.02;;;;;;;0.38;100.00;99623.66;5045085;28;20085;-57
2022/04/01 08:47:57;;;;;;;9.77;7.68;;;;;;;0.38;100.00;99623.66;5044954;28;21068;-57
2022/04/01 08:50:22;;;;;;;11.77;7.15;;;;;;;0.33;100.00;99604.84;5046696;28;20039;-57
2022/04/01 08:52:47;;;;;;;13.43;7.45;;;;;;;0.35;100.00;99621.13;5044432;28;20866;-56
2022/04/01 08:55:13;;;;;;;11.27;8.43;;;;;;;0.47;100.00;99637.22;5044839;28;20031;-57
2022/04/01 08:57:40;;;;;;;10.15;8.00;;;;;;;0.52;100.00;99637.13;5044718;28;20031;-55
2022/04/01 09:00:15;;;;;;;9.85;8.15;;;;;;;0.49;100.00;99644.94;5044678;28;20036;-57
2022/04/01 09:02:41;;;;;;;8.98;7.10;;;;;;;0.40;100.00;99650.31;5045205;28;20139;-56
2022/04/01 09:05:08;;;;;;;10.52;7.85;;;;;;;0.31;100.00;99656.53;5045303;28;20117;-56
2022/04/01 09:07:34;;;;;;;11.90;8.10;;;;;;;0.27;100.00;99669.56;5043771;28;20055;-57
2022/04/01 09:10:02;;;;;;;8.88;7.75;;;;;;;0.23;100.00;99671.34;5044885;28;20024;-56
2022/04/01 09:12:28;;;;;;;11.35;8.23;;;;;;;0.17;100.00;99671.44;5046422;28;20088;-55
2022/04/01 09:14:54;;;;;;;10.35;8.13;;;;;;;0.17;100.00;99676.59;5043694;28;20930;-57
2022/04/01 09:17:20;;;;;;;12.23;8.48;;;;;;;0.13;100.00;99666.38;5044876;28;20028;-56
2022/04/01 09:19:46;;;;;;;12.13;9.15;;;;;;;0.21;100.00;99685.16;5046925;28;20968;-57
2022/04/01 09:22:18;;;;;;;11.20;8.88;;;;;;;0.24;100.00;99690.25;5048547;28;20936;-56
2022/04/01 09:25:07;;;;;;;10.57;8.85;;;;;;;0.21;100.00;99690.31;5047142;28;20024;-57
2022/04/01 09:27:59;;;;;;;10.75;7.93;;;;;;;0.17;100.00;99688.69;5049289;28;20059;-57
2022/04/01 09:30:27;;;;;;;10.43;8.48;;;;;;;0.19;100.00;99692.09;5042688;28;20056;-57
2022/04/01 09:32:58;;;;;;;11.43;8.90;;;;;;;0.23;100.00;99693.72;5048926;28;20032;-56
2022/04/01 09:35:29;;;;;;;11.15;8.55;;;;;;;-0.03;100.00;99648.59;5030417;28;20034;-56
2022/04/01 09:37:59;;;;;;;9.90;8.20;;;;;;;0.08;100.00;99663.03;5040203;28;20051;-56
2022/04/01 09:40:25;;;;;;;10.88;9.02;;;;;;;0.29;100.00;99698.78;5048934;28;20130;-56
2022/04/01 09:42:56;;;;;;;17.52;8.75;;;;;;;0.37;100.00;99702.06;5046149;28;20106;-57
2022/04/01 09:45:27;;;;;;;12.85;7.65;;;;;;;0.38;100.00;99698.56;5048236;28;20031;-57
2022/04/01 09:48:16;;;;;;;9.20;7.78;;;;;;;0.15;100.00;99667.19;5047771;28;20036;-56
2022/04/01 09:50:43;;;;;;;10.27;7.28;;;;;;;0.41;100.00;99707.13;5032287;28;20036;-56
2022/04/01 09:53:16;;;;;;;11.15;7.30;;;;;;;0.45;100.00;99706.19;5047957;28;20032;-55
2022/04/01 09:55:43;;;;;;;12.40;7.72;;;;;;;0.50;100.00;99711.25;5048881;28;20058;-56
2022/04/01 09:58:08;;;;;;;10.15;8.02;;;;;;;0.50;100.00;99719.00;5047892;28;20020;-56
2022/04/01 10:00:36;;;;;;;8.88;6.63;;;;;;;0.55;100.00;99727.50;5049833;28;20024;-56
2022/04/01 10:03:02;;;;;;;8.50;6.63;;;;;;;0.36;100.00;99705.53;5047760;28;20190;-56
2022/04/01 10:05:27;;;;;;;10.23;7.18;;;;;;;0.49;100.00;99722.47;5047715;28;20833;-56
2022/04/01 10:07:54;;;;;;;12.07;6.28;;;;;;;0.40;100.00;99736.44;5048956;28;20131;-55
2022/04/01 10:10:19;;;;;;;9.93;6.93;;;;;;;0.36;100.00;99714.13;5049248;28;20030;-55
2022/04/01 10:12:47;;;;;;;9.02;6.47;;;;;;;0.50;100.00;99737.09;5029334;28;20035;-57
2022/04/01 10:15:13;;;;;;;9.27;7.40;;;;;;;0.50;100.00;99740.53;5048001;28;20082;-57
2022/04/01 10:17:40;;;;;;;12.18;6.85;;;;;;;0.45;100.00;99731.16;5047960;28;20055;-57
2022/04/01 10:20:08;;;;;;;8.05;6.60;;;;;;;0.39;100.00;99731.28;5030406;28;20040;-56
2022/04/01 10:22:35;;;;;;;8.90;6.60;;;;;;;-0.05;100.00;99658.13;5047481;28;20086;-56
2022/04/01 10:25:26;;;;;;;8.43;6.43;;;;;;;0.35;100.00;99734.81;5047720;28;20020;-56
2022/04/01 10:27:53;;;;;;;8.25;6.22;;;;;;;0.41;100.00;99740.72;5029530;28;20032;-56
2022/04/01 10:30:20;;;;;;;9.50;6.22;;;;;;;0.37;100.00;99723.56;5046008;28;20553;-56
2022/04/01 10:32:48;;;;;;;6.97;5.90;;;;;;;0.44;100.00;99737.22;5046186;28;20044;-56
2022/04/01 10:35:45;;;;;;;8.38;6.07;;;;;;;0.39;100.00;99731.28;5047169;28;20082;-57
2022/04/01 10:38:11;;;;;;;8.45;6.10;;;;;;;0.50;100.00;99750.03;5014817;28;20148;-56
2022/04/01 10:40:41;;;;;;;7.90;5.72;;;;;;;0.50;100.00;99752.59;5048109;28;20912;-56
2022/04/01 10:43:27;;;;;;;6.88;5.03;;;;;;;0.50;100.00;99750.88;5047142;28;20056;-57
2022/04/01 10:45:58;;;;;;;8.60;6.15;;;;;;;0.52;100.00;99750.81;5048547;28;20039;-56
2022/04/01 10:51:37;;;;;;;7.78;5.80;;;;;;;0.51;100.00;99760.31;5047084;28;20051;-57
2022/04/01 10:54:23;;;;;;;7.82;5.50;;;;;;;0.53;100.00;99755.13;5047124;28;20028;-56
2022/04/01 10:57:00;;;;;;;8.50;5.68;;;;;;;0.59;100.00;99765.34;5036148;28;20245;-57
2022/04/01 10:59:26;;;;;;;7.88;5.25;;;;;;;0.53;100.00;99775.81;5047242;28;20031;-57
2022/04/01 11:01:52;;;;;;;7.90;6.03;;;;;;;0.53;100.00;99775.81;5029320;28;21063;-57
2022/04/01 11:04:17;;;;;;;10.57;5.65;;;;;;;0.58;100.00;99776.53;5046219;28;20024;-57
2022/04/01 11:07:21;;;;;;;8.38;5.72;;;;;;;0.57;100.00;99772.28;5046399;28;20024;-56
2022/04/01 11:09:49;;;;;;;8.93;5.50;;;;;;;0.57;100.00;99772.28;5016232;28;20036;-57
2022/04/01 11:12:14;;;;;;;7.75;5.10;;;;;;;0.67;100.00;99775.53;5047005;28;20035;-56
2022/04/01 11:14:55;;;;;;;8.88;5.82;;;;;;;0.72;100.00;99786.59;5046416;28;20127;-56
2022/04/01 11:17:25;;;;;;;9.10;5.57;;;;;;;0.38;100.00;99719.25;5046205;28;20036;-56
2022/04/01 11:20:12;;;;;;;9.50;6.10;;;;;;;0.81;100.00;99784.69;5046764;28;20035;-56
2022/04/01 11:22:59;;;;;;;7.28;5.53;;;;;;;0.84;100.00;99771.72;5028883;28;20032;-56
2022/04/01 11:25:24;;;;;;;9.43;5.47;;;;;;;0.91;100.00;99778.44;5046008;28;20028;-55
2022/04/01 11:27:56;;;;;;;7.72;4.95;;;;;;;0.95;100.00;99789.56;5046280;28;20043;-57
2022/04/01 11:30:24;;;;;;;10.93;5.15;;;;;;;0.99;100.00;99781.72;5045778;28;20040;-56
2022/04/01 11:33:13;;;;;;;11.95;5.78;;;;;;;1.02;100.00;99799.75;5045405;28;20038;-56
2022/04/01 11:35:40;;;;;;;8.20;5.88;;;;;;;1.05;100.00;99792.84;5045857;28;20034;-56
2022/04/01 11:38:07;;;;;;;8.70;5.65;;;;;;;1.00;100.00;99793.78;5046183;28;20101;-56